sensor_id;sensor_type;location;lat;lon;timestamp;P1;durP1;ratioP1;P2;durP2;ratioP2
22015;SDS011;64992;51.698;-0.292;2023-09-30T00:01:20;18.10;;;6.22;;
22015;SDS011;64992;51.698;-0.292;2023-09-30T00:03:47;16.15;;;5.28;;
22015;SDS011;64992;51.698;-0.292;2023-09-30T00:06:13;16.55;;;4.97;;
22015;SDS011;64992;51.698;-0.292;2023-09-30T00:08:39;26.17;;;5.90;;
22015;SDS011;64992;51.698;-0.292;2023-09-30T00:11:07;18.33;;;5.15;;
22015;SDS011;64992;51.698;-0.292;2023-09-30T00:13:33;20.00;;;5.25;;
22015;SDS011;64992;51.698;-0.292;2023-09-30T00:15:59;19.63;;;4.68;;
22015;SDS011;64992;51.698;-0.292;2023-09-30T00:18:25;21.98;;;5.35;;
22015;SDS011;64992;51.698;-0.292;2023-09-30T00:20:52;20.27;;;5.03;;
22015;SDS011;64992;51.698;-0.292;2023-09-30T00:23:18;22.70;;;5.03;;
22015;SDS011;64992;51.698;-0.292;2023-09-30T00:25:46;27.45;;;4.28;;
22015;SDS011;64992;51.698;-0.292;2023-09-30T00:28:14;22.45;;;4.32;;
22015;SDS011;64992;51.698;-0.292;2023-09-30T00:30:40;17.23;;;4.30;;
22015;SDS011;64992;51.698;-0.292;2023-09-30T00:33:06;23.77;;;5.70;;
22015;SDS011;64992;51.698;-0.292;2023-09-30T00:35:33;20.38;;;5.32;;
22015;SDS011;64992;51.698;-0.292;2023-09-30T00:37:59;18.80;;;4.85;;
22015;SDS011;64992;51.698;-0.292;2023-09-30T00:40:25;18.40;;;5.18;;
22015;SDS011;64992;51.698;-0.292;2023-09-30T00:42:51;17.73;;;4.53;;
22015;SDS011;64992;51.698;-0.292;2023-09-30T00:45:17;17.80;;;4.50;;
22015;SDS011;64992;51.698;-0.292;2023-09-30T00:47:43;22.38;;;5.03;;
22015;SDS011;64992;51.698;-0.292;2023-09-30T00:50:09;17.30;;;4.78;;
22015;SDS011;64992;51.698;-0.292;2023-09-30T00:52:37;17.33;;;4.20;;
22015;SDS011;64992;51.698;-0.292;2023-09-30T00:55:04;22.40;;;4.13;;
22015;SDS011;64992;51.698;-0.292;2023-09-30T00:57:31;17.05;;;4.38;;
22015;SDS011;64992;51.698;-0.292;2023-09-30T00:59:59;19.05;;;4.82;;
22015;SDS011;64992;51.698;-0.292;2023-09-30T01:02:26;18.23;;;4.88;;
22015;SDS011;64992;51.698;-0.292;2023-09-30T01:04:52;17.65;;;5.38;;
22015;SDS011;64992;51.698;-0.292;2023-09-30T01:07:18;11.90;;;4.47;;
22015;SDS011;64992;51.698;-0.292;2023-09-30T01:09:47;27.13;;;5.82;;
22015;SDS011;64992;51.698;-0.292;2023-09-30T01:12:13;21.95;;;4.68;;
22015;SDS011;64992;51.698;-0.292;2023-09-30T01:14:39;21.98;;;5.60;;
22015;SDS011;64992;51.698;-0.292;2023-09-30T01:17:07;17.40;;;5.22;;
22015;SDS011;64992;51.698;-0.292;2023-09-30T01:19:40;16.27;;;5.68;;
22015;SDS011;64992;51.698;-0.292;2023-09-30T01:22:07;12.60;;;5.40;;
22015;SDS011;64992;51.698;-0.292;2023-09-30T01:24:41;15.88;;;6.20;;
22015;SDS011;64992;51.698;-0.292;2023-09-30T01:27:10;24.75;;;7.75;;
22015;SDS011;64992;51.698;-0.292;2023-09-30T01:29:38;27.45;;;8.70;;
22015;SDS011;64992;51.698;-0.292;2023-09-30T01:32:04;19.67;;;8.20;;
22015;SDS011;64992;51.698;-0.292;2023-09-30T01:34:33;32.42;;;9.35;;
22015;SDS011;64992;51.698;-0.292;2023-09-30T01:37:00;19.88;;;8.50;;
22015;SDS011;64992;51.698;-0.292;2023-09-30T01:39:26;20.67;;;8.65;;
22015;SDS011;64992;51.698;-0.292;2023-09-30T01:41:52;23.27;;;8.20;;
22015;SDS011;64992;51.698;-0.292;2023-09-30T01:44:19;23.50;;;7.43;;
22015;SDS011;64992;51.698;-0.292;2023-09-30T01:46:45;22.85;;;7.50;;
22015;SDS011;64992;51.698;-0.292;2023-09-30T01:49:11;21.23;;;6.78;;
22015;SDS011;64992;51.698;-0.292;2023-09-30T01:51:36;29.13;;;6.80;;
22015;SDS011;64992;51.698;-0.292;2023-09-30T01:54:03;20.45;;;7.32;;
22015;SDS011;64992;51.698;-0.292;2023-09-30T01:56:30;26.88;;;7.72;;
22015;SDS011;64992;51.698;-0.292;2023-09-30T01:58:56;25.02;;;8.10;;
22015;SDS011;64992;51.698;-0.292;2023-09-30T02:01:22;19.45;;;8.57;;
22015;SDS011;64992;51.698;-0.292;2023-09-30T02:03:48;23.80;;;8.70;;
22015;SDS011;64992;51.698;-0.292;2023-09-30T02:06:14;20.60;;;7.80;;
22015;SDS011;64992;51.698;-0.292;2023-09-30T02:08:41;22.73;;;6.57;;
22015;SDS011;64992;51.698;-0.292;2023-09-30T02:11:09;26.80;;;6.95;;
22015;SDS011;64992;51.698;-0.292;2023-09-30T02:13:35;20.70;;;5.93;;
22015;SDS011;64992;51.698;-0.292;2023-09-30T02:16:01;23.58;;;6.25;;
22015;SDS011;64992;51.698;-0.292;2023-09-30T02:18:27;18.30;;;5.70;;
22015;SDS011;64992;51.698;-0.292;2023-09-30T02:20:53;23.67;;;5.68;;
22015;SDS011;64992;51.698;-0.292;2023-09-30T02:23:19;23.80;;;6.25;;
22015;SDS011;64992;51.698;-0.292;2023-09-30T02:25:46;23.08;;;5.50;;
22015;SDS011;64992;51.698;-0.292;2023-09-30T02:28:12;22.30;;;5.90;;
22015;SDS011;64992;51.698;-0.292;2023-09-30T02:30:38;20.95;;;5.40;;
22015;SDS011;64992;51.698;-0.292;2023-09-30T02:33:04;19.65;;;4.85;;
22015;SDS011;64992;51.698;-0.292;2023-09-30T02:35:32;17.77;;;4.80;;
22015;SDS011;64992;51.698;-0.292;2023-09-30T02:37:58;14.75;;;5.20;;
22015;SDS011;64992;51.698;-0.292;2023-09-30T02:40:24;23.15;;;7.32;;
22015;SDS011;64992;51.698;-0.292;2023-09-30T02:42:50;17.25;;;5.18;;
22015;SDS011;64992;51.698;-0.292;2023-09-30T02:45:19;23.42;;;6.28;;
22015;SDS011;64992;51.698;-0.292;2023-09-30T02:47:45;25.55;;;6.18;;
22015;SDS011;64992;51.698;-0.292;2023-09-30T02:50:12;28.52;;;6.10;;
22015;SDS011;64992;51.698;-0.292;2023-09-30T02:52:38;23.15;;;5.53;;
22015;SDS011;64992;51.698;-0.292;2023-09-30T02:55:11;19.92;;;5.35;;
22015;SDS011;64992;51.698;-0.292;2023-09-30T02:57:38;15.07;;;5.20;;
22015;SDS011;64992;51.698;-0.292;2023-09-30T03:00:05;21.10;;;4.10;;
22015;SDS011;64992;51.698;-0.292;2023-09-30T03:02:49;19.58;;;4.20;;
22015;SDS011;64992;51.698;-0.292;2023-09-30T03:05:16;20.10;;;4.55;;
22015;SDS011;64992;51.698;-0.292;2023-09-30T03:07:43;22.50;;;4.95;;
22015;SDS011;64992;51.698;-0.292;2023-09-30T03:10:09;19.40;;;3.88;;
22015;SDS011;64992;51.698;-0.292;2023-09-30T03:12:35;21.90;;;4.25;;
22015;SDS011;64992;51.698;-0.292;2023-09-30T03:15:01;24.58;;;5.30;;
22015;SDS011;64992;51.698;-0.292;2023-09-30T03:17:29;17.80;;;3.78;;
22015;SDS011;64992;51.698;-0.292;2023-09-30T03:19:55;19.25;;;4.90;;
22015;SDS011;64992;51.698;-0.292;2023-09-30T03:22:22;15.60;;;3.95;;
22015;SDS011;64992;51.698;-0.292;2023-09-30T03:24:48;20.70;;;3.75;;
22015;SDS011;64992;51.698;-0.292;2023-09-30T03:27:14;18.77;;;4.30;;
22015;SDS011;64992;51.698;-0.292;2023-09-30T03:29:43;18.17;;;5.60;;
22015;SDS011;64992;51.698;-0.292;2023-09-30T03:32:09;19.40;;;4.13;;
22015;SDS011;64992;51.698;-0.292;2023-09-30T03:34:35;19.20;;;3.78;;
22015;SDS011;64992;51.698;-0.292;2023-09-30T03:37:01;14.23;;;4.10;;
22015;SDS011;64992;51.698;-0.292;2023-09-30T03:39:28;15.27;;;4.28;;
22015;SDS011;64992;51.698;-0.292;2023-09-30T03:41:54;18.98;;;4.30;;
22015;SDS011;64992;51.698;-0.292;2023-09-30T03:44:24;21.52;;;4.80;;
22015;SDS011;64992;51.698;-0.292;2023-09-30T03:46:51;18.88;;;4.32;;
22015;SDS011;64992;51.698;-0.292;2023-09-30T03:49:18;25.42;;;5.35;;
22015;SDS011;64992;51.698;-0.292;2023-09-30T03:51:45;22.45;;;7.05;;
22015;SDS011;64992;51.698;-0.292;2023-09-30T03:54:11;12.15;;;3.70;;
22015;SDS011;64992;51.698;-0.292;2023-09-30T03:56:37;14.23;;;3.97;;
22015;SDS011;64992;51.698;-0.292;2023-09-30T03:59:03;20.30;;;4.63;;
22015;SDS011;64992;51.698;-0.292;2023-09-30T04:01:29;22.80;;;4.82;;
22015;SDS011;64992;51.698;-0.292;2023-09-30T04:03:56;19.40;;;6.60;;
22015;SDS011;64992;51.698;-0.292;2023-09-30T04:06:22;17.33;;;4.88;;
22015;SDS011;64992;51.698;-0.292;2023-09-30T04:08:48;20.50;;;4.68;;
22015;SDS011;64992;51.698;-0.292;2023-09-30T04:11:15;17.42;;;4.88;;
22015;SDS011;64992;51.698;-0.292;2023-09-30T04:13:45;19.40;;;5.35;;
22015;SDS011;64992;51.698;-0.292;2023-09-30T04:16:11;20.88;;;4.95;;
22015;SDS011;64992;51.698;-0.292;2023-09-30T04:18:37;22.08;;;5.18;;
22015;SDS011;64992;51.698;-0.292;2023-09-30T04:21:06;25.90;;;6.35;;
22015;SDS011;64992;51.698;-0.292;2023-09-30T04:23:33;17.35;;;4.78;;
22015;SDS011;64992;51.698;-0.292;2023-09-30T04:26:01;22.95;;;5.53;;
22015;SDS011;64992;51.698;-0.292;2023-09-30T04:28:28;19.30;;;5.55;;
22015;SDS011;64992;51.698;-0.292;2023-09-30T04:30:54;18.40;;;5.10;;
22015;SDS011;64992;51.698;-0.292;2023-09-30T04:33:21;18.85;;;4.90;;
22015;SDS011;64992;51.698;-0.292;2023-09-30T04:35:49;15.80;;;4.13;;
22015;SDS011;64992;51.698;-0.292;2023-09-30T04:38:15;17.02;;;4.57;;
22015;SDS011;64992;51.698;-0.292;2023-09-30T04:40:41;16.95;;;4.80;;
22015;SDS011;64992;51.698;-0.292;2023-09-30T04:43:09;14.43;;;4.55;;
22015;SDS011;64992;51.698;-0.292;2023-09-30T04:45:36;22.48;;;4.28;;
22015;SDS011;64992;51.698;-0.292;2023-09-30T04:48:02;24.08;;;5.78;;
22015;SDS011;64992;51.698;-0.292;2023-09-30T04:50:28;21.42;;;5.43;;
22015;SDS011;64992;51.698;-0.292;2023-09-30T04:52:55;22.55;;;5.07;;
22015;SDS011;64992;51.698;-0.292;2023-09-30T04:55:22;24.05;;;5.75;;
22015;SDS011;64992;51.698;-0.292;2023-09-30T04:57:48;18.85;;;5.05;;
22015;SDS011;64992;51.698;-0.292;2023-09-30T05:00:15;14.32;;;4.22;;
22015;SDS011;64992;51.698;-0.292;2023-09-30T05:02:42;18.20;;;4.53;;
22015;SDS011;64992;51.698;-0.292;2023-09-30T05:05:09;19.20;;;5.85;;
22015;SDS011;64992;51.698;-0.292;2023-09-30T05:07:36;22.67;;;4.45;;
22015;SDS011;64992;51.698;-0.292;2023-09-30T05:10:02;15.98;;;3.60;;
22015;SDS011;64992;51.698;-0.292;2023-09-30T05:15:01;17.05;;;4.18;;
22015;SDS011;64992;51.698;-0.292;2023-09-30T05:17:27;21.55;;;6.22;;
22015;SDS011;64992;51.698;-0.292;2023-09-30T05:19:53;17.85;;;5.00;;
22015;SDS011;64992;51.698;-0.292;2023-09-30T05:22:20;13.50;;;4.70;;
22015;SDS011;64992;51.698;-0.292;2023-09-30T05:24:48;21.45;;;5.82;;
22015;SDS011;64992;51.698;-0.292;2023-09-30T05:27:15;20.38;;;5.05;;
22015;SDS011;64992;51.698;-0.292;2023-09-30T05:29:41;22.08;;;5.97;;
22015;SDS011;64992;51.698;-0.292;2023-09-30T05:32:07;27.67;;;5.97;;
22015;SDS011;64992;51.698;-0.292;2023-09-30T05:34:34;20.38;;;5.15;;
22015;SDS011;64992;51.698;-0.292;2023-09-30T05:37:00;21.75;;;5.18;;
22015;SDS011;64992;51.698;-0.292;2023-09-30T05:39:26;17.30;;;5.03;;
22015;SDS011;64992;51.698;-0.292;2023-09-30T05:41:53;15.57;;;4.82;;
22015;SDS011;64992;51.698;-0.292;2023-09-30T05:44:20;20.90;;;4.80;;
22015;SDS011;64992;51.698;-0.292;2023-09-30T05:46:47;19.48;;;5.63;;
22015;SDS011;64992;51.698;-0.292;2023-09-30T05:49:13;29.48;;;6.55;;
22015;SDS011;64992;51.698;-0.292;2023-09-30T05:51:42;23.77;;;5.20;;
22015;SDS011;64992;51.698;-0.292;2023-09-30T05:54:08;23.05;;;6.15;;
22015;SDS011;64992;51.698;-0.292;2023-09-30T05:56:37;25.67;;;6.25;;
22015;SDS011;64992;51.698;-0.292;2023-09-30T05:59:06;16.70;;;5.57;;
22015;SDS011;64992;51.698;-0.292;2023-09-30T06:01:33;26.17;;;5.47;;
22015;SDS011;64992;51.698;-0.292;2023-09-30T06:03:59;21.85;;;5.30;;
22015;SDS011;64992;51.698;-0.292;2023-09-30T06:06:26;19.90;;;5.72;;
22015;SDS011;64992;51.698;-0.292;2023-09-30T06:08:54;18.55;;;5.65;;
22015;SDS011;64992;51.698;-0.292;2023-09-30T06:11:23;20.73;;;5.07;;
22015;SDS011;64992;51.698;-0.292;2023-09-30T06:13:52;20.60;;;5.70;;
22015;SDS011;64992;51.698;-0.292;2023-09-30T06:16:18;24.90;;;5.57;;
22015;SDS011;64992;51.698;-0.292;2023-09-30T06:18:44;31.90;;;6.93;;
22015;SDS011;64992;51.698;-0.292;2023-09-30T06:21:11;19.27;;;6.20;;
22015;SDS011;64992;51.698;-0.292;2023-09-30T06:23:37;16.50;;;5.82;;
22015;SDS011;64992;51.698;-0.292;2023-09-30T06:26:03;25.48;;;5.72;;
22015;SDS011;64992;51.698;-0.292;2023-09-30T06:28:29;16.42;;;5.22;;
22015;SDS011;64992;51.698;-0.292;2023-09-30T06:30:57;25.65;;;6.88;;
22015;SDS011;64992;51.698;-0.292;2023-09-30T06:33:23;25.55;;;5.82;;
22015;SDS011;64992;51.698;-0.292;2023-09-30T06:35:50;25.17;;;5.75;;
22015;SDS011;64992;51.698;-0.292;2023-09-30T06:38:19;20.42;;;5.55;;
22015;SDS011;64992;51.698;-0.292;2023-09-30T06:40:45;22.73;;;4.85;;
22015;SDS011;64992;51.698;-0.292;2023-09-30T06:43:12;24.88;;;5.82;;
22015;SDS011;64992;51.698;-0.292;2023-09-30T06:45:40;19.30;;;5.57;;
22015;SDS011;64992;51.698;-0.292;2023-09-30T06:48:07;16.33;;;4.90;;
22015;SDS011;64992;51.698;-0.292;2023-09-30T06:50:37;17.50;;;3.97;;
22015;SDS011;64992;51.698;-0.292;2023-09-30T06:53:03;15.68;;;5.00;;
22015;SDS011;64992;51.698;-0.292;2023-09-30T06:55:30;19.88;;;4.53;;
22015;SDS011;64992;51.698;-0.292;2023-09-30T06:57:56;20.48;;;5.05;;
22015;SDS011;64992;51.698;-0.292;2023-09-30T07:00:22;17.33;;;5.60;;
22015;SDS011;64992;51.698;-0.292;2023-09-30T07:02:50;21.80;;;4.55;;
22015;SDS011;64992;51.698;-0.292;2023-09-30T07:05:16;25.80;;;5.13;;
22015;SDS011;64992;51.698;-0.292;2023-09-30T07:07:42;18.95;;;7.20;;
22015;SDS011;64992;51.698;-0.292;2023-09-30T07:10:08;19.73;;;4.75;;
22015;SDS011;64992;51.698;-0.292;2023-09-30T07:12:35;16.05;;;4.95;;
22015;SDS011;64992;51.698;-0.292;2023-09-30T07:15:02;21.60;;;4.95;;
22015;SDS011;64992;51.698;-0.292;2023-09-30T07:17:28;24.40;;;5.68;;
22015;SDS011;64992;51.698;-0.292;2023-09-30T07:19:55;20.85;;;4.72;;
22015;SDS011;64992;51.698;-0.292;2023-09-30T07:22:21;23.05;;;5.80;;
22015;SDS011;64992;51.698;-0.292;2023-09-30T07:24:47;21.67;;;5.00;;
22015;SDS011;64992;51.698;-0.292;2023-09-30T07:27:13;25.17;;;4.95;;
22015;SDS011;64992;51.698;-0.292;2023-09-30T07:29:39;20.45;;;5.50;;
22015;SDS011;64992;51.698;-0.292;2023-09-30T07:32:08;18.75;;;6.13;;
22015;SDS011;64992;51.698;-0.292;2023-09-30T07:34:34;23.42;;;5.05;;
22015;SDS011;64992;51.698;-0.292;2023-09-30T07:37:00;17.38;;;5.00;;
22015;SDS011;64992;51.698;-0.292;2023-09-30T07:39:26;21.65;;;4.88;;
22015;SDS011;64992;51.698;-0.292;2023-09-30T07:41:52;22.88;;;5.00;;
22015;SDS011;64992;51.698;-0.292;2023-09-30T07:44:18;21.98;;;4.68;;
22015;SDS011;64992;51.698;-0.292;2023-09-30T07:46:44;18.48;;;4.28;;
22015;SDS011;64992;51.698;-0.292;2023-09-30T07:49:10;14.90;;;4.28;;
22015;SDS011;64992;51.698;-0.292;2023-09-30T07:51:36;20.80;;;4.45;;
22015;SDS011;64992;51.698;-0.292;2023-09-30T07:58:32;17.83;;;4.63;;
22015;SDS011;64992;51.698;-0.292;2023-09-30T08:03:49;21.17;;;4.35;;
22015;SDS011;64992;51.698;-0.292;2023-09-30T08:09:06;19.73;;;4.75;;
22015;SDS011;64992;51.698;-0.292;2023-09-30T08:20:43;12.10;;;2.93;;
22015;SDS011;64992;51.698;-0.292;2023-09-30T08:29:19;23.90;;;3.40;;
22015;SDS011;64992;51.698;-0.292;2023-09-30T08:31:45;21.98;;;4.43;;
22015;SDS011;64992;51.698;-0.292;2023-09-30T08:40:04;22.60;;;4.55;;
22015;SDS011;64992;51.698;-0.292;2023-09-30T08:45:50;20.35;;;4.15;;
22015;SDS011;64992;51.698;-0.292;2023-09-30T09:06:46;26.48;;;4.40;;
22015;SDS011;64992;51.698;-0.292;2023-09-30T09:23:43;22.70;;;3.75;;
22015;SDS011;64992;51.698;-0.292;2023-09-30T09:29:12;18.17;;;4.70;;
22015;SDS011;64992;51.698;-0.292;2023-09-30T09:46:10;19.63;;;4.53;;
22015;SDS011;64992;51.698;-0.292;2023-09-30T09:54:00;12.38;;;3.20;;
22015;SDS011;64992;51.698;-0.292;2023-09-30T09:56:28;15.23;;;3.40;;
22015;SDS011;64992;51.698;-0.292;2023-09-30T09:58:54;12.63;;;2.95;;
22015;SDS011;64992;51.698;-0.292;2023-09-30T10:07:21;21.55;;;3.88;;
22015;SDS011;64992;51.698;-0.292;2023-09-30T10:33:31;18.15;;;3.45;;
22015;SDS011;64992;51.698;-0.292;2023-09-30T10:35:57;14.30;;;3.42;;
22015;SDS011;64992;51.698;-0.292;2023-09-30T10:40:55;9.70;;;2.30;;
22015;SDS011;64992;51.698;-0.292;2023-09-30T10:43:54;9.88;;;2.88;;
22015;SDS011;64992;51.698;-0.292;2023-09-30T10:46:47;10.65;;;2.67;;
22015;SDS011;64992;51.698;-0.292;2023-09-30T10:49:15;10.85;;;2.47;;
22015;SDS011;64992;51.698;-0.292;2023-09-30T10:51:44;12.00;;;2.97;;
22015;SDS011;64992;51.698;-0.292;2023-09-30T10:54:11;8.93;;;3.50;;
22015;SDS011;64992;51.698;-0.292;2023-09-30T10:56:38;10.35;;;2.42;;
22015;SDS011;64992;51.698;-0.292;2023-09-30T10:59:04;11.02;;;3.13;;
22015;SDS011;64992;51.698;-0.292;2023-09-30T11:01:34;7.75;;;2.90;;
22015;SDS011;64992;51.698;-0.292;2023-09-30T11:04:01;8.85;;;2.75;;
22015;SDS011;64992;51.698;-0.292;2023-09-30T11:06:29;10.73;;;3.50;;
22015;SDS011;64992;51.698;-0.292;2023-09-30T11:08:56;6.35;;;2.50;;
22015;SDS011;64992;51.698;-0.292;2023-09-30T11:11:35;9.52;;;2.67;;
22015;SDS011;64992;51.698;-0.292;2023-09-30T11:14:02;6.88;;;2.45;;
22015;SDS011;64992;51.698;-0.292;2023-09-30T11:16:39;11.52;;;4.00;;
22015;SDS011;64992;51.698;-0.292;2023-09-30T11:19:05;7.03;;;2.60;;
22015;SDS011;64992;51.698;-0.292;2023-09-30T11:21:33;9.23;;;2.22;;
22015;SDS011;64992;51.698;-0.292;2023-09-30T11:24:00;15.25;;;2.90;;
22015;SDS011;64992;51.698;-0.292;2023-09-30T11:26:32;10.52;;;2.20;;
22015;SDS011;64992;51.698;-0.292;2023-09-30T11:29:15;10.80;;;2.95;;
22015;SDS011;64992;51.698;-0.292;2023-09-30T11:31:42;8.23;;;1.77;;
22015;SDS011;64992;51.698;-0.292;2023-09-30T11:34:08;8.82;;;1.98;;
22015;SDS011;64992;51.698;-0.292;2023-09-30T11:36:46;11.75;;;2.53;;
22015;SDS011;64992;51.698;-0.292;2023-09-30T11:39:27;9.50;;;2.53;;
22015;SDS011;64992;51.698;-0.292;2023-09-30T11:41:53;7.80;;;2.40;;
22015;SDS011;64992;51.698;-0.292;2023-09-30T11:44:22;7.80;;;3.03;;
22015;SDS011;64992;51.698;-0.292;2023-09-30T11:51:53;5.53;;;1.95;;
22015;SDS011;64992;51.698;-0.292;2023-09-30T11:54:20;10.93;;;2.17;;
22015;SDS011;64992;51.698;-0.292;2023-09-30T11:56:47;11.98;;;2.03;;
22015;SDS011;64992;51.698;-0.292;2023-09-30T11:59:13;9.75;;;2.17;;
22015;SDS011;64992;51.698;-0.292;2023-09-30T12:01:39;7.20;;;1.77;;
22015;SDS011;64992;51.698;-0.292;2023-09-30T12:04:06;9.15;;;2.30;;
22015;SDS011;64992;51.698;-0.292;2023-09-30T12:06:34;13.07;;;3.85;;
22015;SDS011;64992;51.698;-0.292;2023-09-30T12:09:03;13.68;;;2.45;;
22015;SDS011;64992;51.698;-0.292;2023-09-30T12:11:29;13.32;;;2.55;;
22015;SDS011;64992;51.698;-0.292;2023-09-30T12:13:55;6.78;;;2.35;;
22015;SDS011;64992;51.698;-0.292;2023-09-30T12:16:21;7.00;;;2.45;;
22015;SDS011;64992;51.698;-0.292;2023-09-30T12:18:48;8.35;;;2.17;;
22015;SDS011;64992;51.698;-0.292;2023-09-30T12:21:14;11.25;;;2.55;;
22015;SDS011;64992;51.698;-0.292;2023-09-30T12:23:45;6.72;;;2.25;;
22015;SDS011;64992;51.698;-0.292;2023-09-30T12:26:11;10.10;;;2.95;;
22015;SDS011;64992;51.698;-0.292;2023-09-30T12:28:37;9.40;;;1.98;;
22015;SDS011;64992;51.698;-0.292;2023-09-30T12:31:05;10.20;;;2.85;;
22015;SDS011;64992;51.698;-0.292;2023-09-30T12:33:31;8.25;;;2.30;;
22015;SDS011;64992;51.698;-0.292;2023-09-30T12:35:57;10.48;;;2.30;;
22015;SDS011;64992;51.698;-0.292;2023-09-30T12:38:24;15.05;;;2.80;;
22015;SDS011;64992;51.698;-0.292;2023-09-30T12:40:56;16.77;;;3.00;;
22015;SDS011;64992;51.698;-0.292;2023-09-30T12:43:22;12.90;;;2.88;;
22015;SDS011;64992;51.698;-0.292;2023-09-30T12:45:48;6.55;;;2.30;;
22015;SDS011;64992;51.698;-0.292;2023-09-30T12:48:14;9.63;;;2.70;;
22015;SDS011;64992;51.698;-0.292;2023-09-30T12:50:42;9.55;;;2.22;;
22015;SDS011;64992;51.698;-0.292;2023-09-30T12:53:08;8.95;;;2.70;;
22015;SDS011;64992;51.698;-0.292;2023-09-30T12:55:35;5.45;;;2.03;;
22015;SDS011;64992;51.698;-0.292;2023-09-30T12:58:01;13.18;;;2.55;;
22015;SDS011;64992;51.698;-0.292;2023-09-30T13:00:27;12.43;;;2.63;;
22015;SDS011;64992;51.698;-0.292;2023-09-30T13:02:56;11.38;;;3.20;;
22015;SDS011;64992;51.698;-0.292;2023-09-30T13:05:23;6.82;;;2.28;;
22015;SDS011;64992;51.698;-0.292;2023-09-30T13:07:50;9.18;;;3.10;;
22015;SDS011;64992;51.698;-0.292;2023-09-30T13:10:17;7.63;;;2.20;;
22015;SDS011;64992;51.698;-0.292;2023-09-30T13:12:44;8.43;;;2.88;;
22015;SDS011;64992;51.698;-0.292;2023-09-30T13:15:10;6.60;;;2.10;;
22015;SDS011;64992;51.698;-0.292;2023-09-30T13:17:36;10.63;;;2.60;;
22015;SDS011;64992;51.698;-0.292;2023-09-30T13:20:02;14.45;;;3.45;;
22015;SDS011;64992;51.698;-0.292;2023-09-30T13:22:30;12.57;;;2.42;;
22015;SDS011;64992;51.698;-0.292;2023-09-30T13:24:57;11.02;;;2.72;;
22015;SDS011;64992;51.698;-0.292;2023-09-30T13:27:23;6.80;;;2.50;;
22015;SDS011;64992;51.698;-0.292;2023-09-30T13:29:49;12.38;;;2.20;;
22015;SDS011;64992;51.698;-0.292;2023-09-30T13:32:16;15.05;;;2.47;;
22015;SDS011;64992;51.698;-0.292;2023-09-30T13:34:43;9.45;;;2.80;;
22015;SDS011;64992;51.698;-0.292;2023-09-30T13:37:09;7.40;;;2.33;;
22015;SDS011;64992;51.698;-0.292;2023-09-30T13:39:36;10.82;;;2.33;;
22015;SDS011;64992;51.698;-0.292;2023-09-30T13:42:03;7.13;;;2.53;;
22015;SDS011;64992;51.698;-0.292;2023-09-30T13:44:29;10.55;;;2.65;;
22015;SDS011;64992;51.698;-0.292;2023-09-30T13:46:55;9.00;;;2.45;;
22015;SDS011;64992;51.698;-0.292;2023-09-30T13:49:21;7.47;;;2.45;;
22015;SDS011;64992;51.698;-0.292;2023-09-30T13:51:47;10.57;;;3.13;;
22015;SDS011;64992;51.698;-0.292;2023-09-30T13:54:13;13.88;;;3.00;;
22015;SDS011;64992;51.698;-0.292;2023-09-30T13:56:40;8.27;;;2.33;;
22015;SDS011;64992;51.698;-0.292;2023-09-30T13:59:06;6.80;;;2.35;;
22015;SDS011;64992;51.698;-0.292;2023-09-30T14:01:32;8.32;;;2.75;;
22015;SDS011;64992;51.698;-0.292;2023-09-30T14:03:58;11.30;;;3.20;;
22015;SDS011;64992;51.698;-0.292;2023-09-30T14:06:24;9.05;;;3.38;;
22015;SDS011;64992;51.698;-0.292;2023-09-30T14:08:51;6.70;;;1.88;;
22015;SDS011;64992;51.698;-0.292;2023-09-30T14:11:18;9.95;;;2.97;;
22015;SDS011;64992;51.698;-0.292;2023-09-30T14:13:44;13.52;;;2.90;;
22015;SDS011;64992;51.698;-0.292;2023-09-30T14:16:10;9.88;;;2.95;;
22015;SDS011;64992;51.698;-0.292;2023-09-30T14:18:36;8.93;;;2.53;;
22015;SDS011;64992;51.698;-0.292;2023-09-30T14:21:04;8.45;;;2.00;;
22015;SDS011;64992;51.698;-0.292;2023-09-30T14:23:31;9.45;;;3.00;;
22015;SDS011;64992;51.698;-0.292;2023-09-30T14:25:57;7.30;;;2.25;;
22015;SDS011;64992;51.698;-0.292;2023-09-30T14:28:24;6.10;;;2.03;;
22015;SDS011;64992;51.698;-0.292;2023-09-30T14:30:51;11.20;;;2.90;;
22015;SDS011;64992;51.698;-0.292;2023-09-30T14:33:17;8.48;;;2.78;;
22015;SDS011;64992;51.698;-0.292;2023-09-30T14:35:44;14.98;;;2.97;;
22015;SDS011;64992;51.698;-0.292;2023-09-30T14:38:11;13.90;;;3.13;;
22015;SDS011;64992;51.698;-0.292;2023-09-30T14:40:37;11.10;;;3.17;;
22015;SDS011;64992;51.698;-0.292;2023-09-30T14:43:07;10.82;;;2.72;;
22015;SDS011;64992;51.698;-0.292;2023-09-30T14:45:40;7.03;;;2.20;;
22015;SDS011;64992;51.698;-0.292;2023-09-30T14:48:07;7.53;;;2.35;;
22015;SDS011;64992;51.698;-0.292;2023-09-30T14:50:33;9.27;;;2.60;;
22015;SDS011;64992;51.698;-0.292;2023-09-30T14:52:59;14.02;;;2.55;;
22015;SDS011;64992;51.698;-0.292;2023-09-30T14:55:25;7.78;;;2.40;;
22015;SDS011;64992;51.698;-0.292;2023-09-30T14:57:52;8.48;;;2.53;;
22015;SDS011;64992;51.698;-0.292;2023-09-30T15:00:18;12.38;;;2.78;;
22015;SDS011;64992;51.698;-0.292;2023-09-30T15:02:47;5.45;;;2.40;;
22015;SDS011;64992;51.698;-0.292;2023-09-30T15:05:13;7.68;;;2.80;;
22015;SDS011;64992;51.698;-0.292;2023-09-30T15:07:39;7.45;;;2.50;;
22015;SDS011;64992;51.698;-0.292;2023-09-30T15:10:05;6.57;;;2.22;;
22015;SDS011;64992;51.698;-0.292;2023-09-30T15:12:32;8.40;;;2.88;;
22015;SDS011;64992;51.698;-0.292;2023-09-30T15:14:58;10.88;;;2.97;;
22015;SDS011;64992;51.698;-0.292;2023-09-30T15:17:24;10.00;;;2.78;;
22015;SDS011;64992;51.698;-0.292;2023-09-30T15:19:50;10.88;;;2.90;;
22015;SDS011;64992;51.698;-0.292;2023-09-30T15:22:16;6.35;;;2.08;;
22015;SDS011;64992;51.698;-0.292;2023-09-30T15:24:42;8.60;;;2.50;;
22015;SDS011;64992;51.698;-0.292;2023-09-30T15:27:09;5.93;;;2.10;;
22015;SDS011;64992;51.698;-0.292;2023-09-30T15:29:35;7.95;;;2.33;;
22015;SDS011;64992;51.698;-0.292;2023-09-30T15:32:03;7.82;;;2.75;;
22015;SDS011;64992;51.698;-0.292;2023-09-30T15:34:29;4.85;;;2.33;;
22015;SDS011;64992;51.698;-0.292;2023-09-30T15:36:55;8.80;;;3.05;;
22015;SDS011;64992;51.698;-0.292;2023-09-30T15:39:22;7.45;;;2.65;;
22015;SDS011;64992;51.698;-0.292;2023-09-30T15:41:48;7.70;;;2.78;;
22015;SDS011;64992;51.698;-0.292;2023-09-30T15:44:14;6.82;;;2.13;;
22015;SDS011;64992;51.698;-0.292;2023-09-30T15:46:40;8.68;;;2.28;;
22015;SDS011;64992;51.698;-0.292;2023-09-30T15:49:06;9.80;;;2.65;;
22015;SDS011;64992;51.698;-0.292;2023-09-30T15:51:32;9.23;;;2.90;;
22015;SDS011;64992;51.698;-0.292;2023-09-30T15:53:58;9.57;;;2.47;;
22015;SDS011;64992;51.698;-0.292;2023-09-30T15:56:24;16.02;;;3.45;;
22015;SDS011;64992;51.698;-0.292;2023-09-30T15:58:50;9.68;;;2.75;;
22015;SDS011;64992;51.698;-0.292;2023-09-30T16:01:17;9.95;;;2.75;;
22015;SDS011;64992;51.698;-0.292;2023-09-30T16:03:43;9.15;;;2.67;;
22015;SDS011;64992;51.698;-0.292;2023-09-30T16:06:09;11.07;;;2.97;;
22015;SDS011;64992;51.698;-0.292;2023-09-30T16:08:35;9.07;;;2.38;;
22015;SDS011;64992;51.698;-0.292;2023-09-30T16:11:01;7.68;;;2.60;;
22015;SDS011;64992;51.698;-0.292;2023-09-30T16:13:27;11.55;;;3.17;;
22015;SDS011;64992;51.698;-0.292;2023-09-30T16:15:53;13.45;;;2.80;;
22015;SDS011;64992;51.698;-0.292;2023-09-30T16:18:20;8.57;;;2.85;;
22015;SDS011;64992;51.698;-0.292;2023-09-30T16:20:46;8.88;;;2.85;;
22015;SDS011;64992;51.698;-0.292;2023-09-30T16:23:12;10.60;;;2.72;;
22015;SDS011;64992;51.698;-0.292;2023-09-30T16:25:38;6.75;;;2.50;;
22015;SDS011;64992;51.698;-0.292;2023-09-30T16:28:04;7.65;;;2.38;;
22015;SDS011;64992;51.698;-0.292;2023-09-30T16:30:30;9.77;;;2.60;;
22015;SDS011;64992;51.698;-0.292;2023-09-30T16:32:56;6.63;;;2.25;;
22015;SDS011;64992;51.698;-0.292;2023-09-30T16:35:23;9.15;;;2.35;;